Terminal Aerodrome Forecast
Issued by NWS Missoula, MT

Home | Current Version | Previous Version | Text Only | Print | Product List | Glossary On
Versions: 1 2 3 4 5 6 7 8 9 10 11 12 13 14 15
091
FTUS45 KMSO 230539
TAFMSO
TAF
KMSO 230539Z 2306/2406 33006KT P6SM VCSH SCT050 OVC120
     FM231300 31010G15KT P6SM -RA SCT030 OVC045
     FM231800 30010G20KT P6SM VCSH SCT040 BKN100=

USA.gov is the U.S. government's official web portal to all federal, state and local government web resources and services.